sensor_id;sensor_type;location;lat;lon;timestamp;P1;durP1;ratioP1;P2;durP2;ratioP2
5819;SDS011;2936;47.348;9.640;2023-12-07T00:01:18;39.67;;;13.70;;
5819;SDS011;2936;47.348;9.640;2023-12-07T00:03:46;21.67;;;14.75;;
5819;SDS011;2936;47.348;9.640;2023-12-07T00:06:13;16.77;;;13.35;;
5819;SDS011;2936;47.348;9.640;2023-12-07T00:08:43;26.58;;;14.52;;
5819;SDS011;2936;47.348;9.640;2023-12-07T00:11:09;24.50;;;15.48;;
5819;SDS011;2936;47.348;9.640;2023-12-07T00:13:37;29.67;;;14.75;;
5819;SDS011;2936;47.348;9.640;2023-12-07T00:16:05;18.05;;;12.35;;
5819;SDS011;2936;47.348;9.640;2023-12-07T00:18:33;20.20;;;14.00;;
5819;SDS011;2936;47.348;9.640;2023-12-07T00:21:01;18.45;;;14.23;;
5819;SDS011;2936;47.348;9.640;2023-12-07T00:23:28;23.08;;;14.73;;
5819;SDS011;2936;47.348;9.640;2023-12-07T00:25:58;23.33;;;15.32;;
5819;SDS011;2936;47.348;9.640;2023-12-07T00:28:25;26.88;;;14.32;;
5819;SDS011;2936;47.348;9.640;2023-12-07T00:30:53;26.80;;;15.77;;
5819;SDS011;2936;47.348;9.640;2023-12-07T00:33:20;27.63;;;16.10;;
5819;SDS011;2936;47.348;9.640;2023-12-07T00:35:48;33.35;;;16.92;;
5819;SDS011;2936;47.348;9.640;2023-12-07T00:38:16;23.25;;;16.23;;
5819;SDS011;2936;47.348;9.640;2023-12-07T00:40:43;35.80;;;17.40;;
5819;SDS011;2936;47.348;9.640;2023-12-07T00:43:11;22.10;;;15.40;;
5819;SDS011;2936;47.348;9.640;2023-12-07T00:45:39;24.38;;;15.98;;
5819;SDS011;2936;47.348;9.640;2023-12-07T00:48:07;25.42;;;15.70;;
5819;SDS011;2936;47.348;9.640;2023-12-07T00:50:35;25.05;;;15.50;;
5819;SDS011;2936;47.348;9.640;2023-12-07T00:53:02;22.38;;;15.15;;
5819;SDS011;2936;47.348;9.640;2023-12-07T00:55:30;27.88;;;16.02;;
5819;SDS011;2936;47.348;9.640;2023-12-07T00:57:58;23.58;;;15.02;;
5819;SDS011;2936;47.348;9.640;2023-12-07T01:00:28;22.85;;;15.43;;
5819;SDS011;2936;47.348;9.640;2023-12-07T01:02:55;25.75;;;16.15;;
5819;SDS011;2936;47.348;9.640;2023-12-07T01:05:23;22.88;;;14.23;;
5819;SDS011;2936;47.348;9.640;2023-12-07T01:07:51;33.53;;;15.93;;
5819;SDS011;2936;47.348;9.640;2023-12-07T01:10:19;30.67;;;17.98;;
5819;SDS011;2936;47.348;9.640;2023-12-07T01:12:46;24.83;;;16.58;;
5819;SDS011;2936;47.348;9.640;2023-12-07T01:15:14;29.50;;;17.23;;
5819;SDS011;2936;47.348;9.640;2023-12-07T01:17:44;32.53;;;16.73;;
5819;SDS011;2936;47.348;9.640;2023-12-07T01:20:12;25.10;;;15.25;;
5819;SDS011;2936;47.348;9.640;2023-12-07T01:22:40;22.90;;;15.57;;
5819;SDS011;2936;47.348;9.640;2023-12-07T01:25:07;22.38;;;16.30;;
5819;SDS011;2936;47.348;9.640;2023-12-07T01:27:35;29.13;;;14.70;;
5819;SDS011;2936;47.348;9.640;2023-12-07T01:30:07;26.75;;;16.20;;
5819;SDS011;2936;47.348;9.640;2023-12-07T01:32:37;24.63;;;15.60;;
5819;SDS011;2936;47.348;9.640;2023-12-07T01:35:08;29.08;;;17.15;;
5819;SDS011;2936;47.348;9.640;2023-12-07T01:37:37;24.38;;;16.92;;
5819;SDS011;2936;47.348;9.640;2023-12-07T01:40:09;24.83;;;15.18;;
5819;SDS011;2936;47.348;9.640;2023-12-07T01:42:40;28.65;;;16.00;;
5819;SDS011;2936;47.348;9.640;2023-12-07T01:45:08;26.05;;;15.30;;
5819;SDS011;2936;47.348;9.640;2023-12-07T01:47:36;22.30;;;16.65;;
5819;SDS011;2936;47.348;9.640;2023-12-07T01:50:09;27.52;;;16.60;;
5819;SDS011;2936;47.348;9.640;2023-12-07T01:52:37;25.92;;;16.38;;
5819;SDS011;2936;47.348;9.640;2023-12-07T01:55:05;32.00;;;19.52;;
5819;SDS011;2936;47.348;9.640;2023-12-07T01:57:34;27.75;;;18.75;;
5819;SDS011;2936;47.348;9.640;2023-12-07T02:00:03;27.05;;;17.38;;
5819;SDS011;2936;47.348;9.640;2023-12-07T02:02:31;34.90;;;19.65;;
5819;SDS011;2936;47.348;9.640;2023-12-07T02:04:59;26.50;;;16.45;;
5819;SDS011;2936;47.348;9.640;2023-12-07T02:07:28;39.25;;;18.55;;
5819;SDS011;2936;47.348;9.640;2023-12-07T02:09:58;29.10;;;17.45;;
5819;SDS011;2936;47.348;9.640;2023-12-07T02:12:26;25.42;;;17.42;;
5819;SDS011;2936;47.348;9.640;2023-12-07T02:14:54;41.13;;;19.23;;
5819;SDS011;2936;47.348;9.640;2023-12-07T02:17:24;24.55;;;16.05;;
5819;SDS011;2936;47.348;9.640;2023-12-07T02:19:55;27.83;;;15.80;;
5819;SDS011;2936;47.348;9.640;2023-12-07T02:22:25;25.63;;;15.38;;
5819;SDS011;2936;47.348;9.640;2023-12-07T02:27:38;28.73;;;16.35;;
5819;SDS011;2936;47.348;9.640;2023-12-07T02:30:06;19.52;;;14.13;;
5819;SDS011;2936;47.348;9.640;2023-12-07T02:32:34;24.10;;;15.70;;
5819;SDS011;2936;47.348;9.640;2023-12-07T02:35:02;22.73;;;15.65;;
5819;SDS011;2936;47.348;9.640;2023-12-07T02:37:32;26.05;;;15.50;;
5819;SDS011;2936;47.348;9.640;2023-12-07T02:40:03;23.60;;;16.45;;
5819;SDS011;2936;47.348;9.640;2023-12-07T02:42:31;22.98;;;14.52;;
5819;SDS011;2936;47.348;9.640;2023-12-07T02:45:01;22.00;;;15.27;;
5819;SDS011;2936;47.348;9.640;2023-12-07T02:47:29;23.15;;;14.75;;
5819;SDS011;2936;47.348;9.640;2023-12-07T02:49:57;25.77;;;16.55;;
5819;SDS011;2936;47.348;9.640;2023-12-07T02:52:25;25.20;;;15.52;;
5819;SDS011;2936;47.348;9.640;2023-12-07T02:54:54;32.97;;;15.40;;
5819;SDS011;2936;47.348;9.640;2023-12-07T02:57:21;28.38;;;16.90;;
5819;SDS011;2936;47.348;9.640;2023-12-07T02:59:49;26.17;;;16.40;;
5819;SDS011;2936;47.348;9.640;2023-12-07T03:02:18;25.10;;;16.02;;
5819;SDS011;2936;47.348;9.640;2023-12-07T03:04:46;27.13;;;15.57;;
5819;SDS011;2936;47.348;9.640;2023-12-07T03:07:14;23.27;;;15.77;;
5819;SDS011;2936;47.348;9.640;2023-12-07T03:09:42;23.77;;;16.30;;
5819;SDS011;2936;47.348;9.640;2023-12-07T03:12:09;28.88;;;14.48;;
5819;SDS011;2936;47.348;9.640;2023-12-07T03:14:37;26.02;;;14.55;;
5819;SDS011;2936;47.348;9.640;2023-12-07T03:17:05;23.05;;;15.75;;
5819;SDS011;2936;47.348;9.640;2023-12-07T03:19:37;26.90;;;15.95;;
5819;SDS011;2936;47.348;9.640;2023-12-07T03:22:05;23.42;;;14.05;;
5819;SDS011;2936;47.348;9.640;2023-12-07T03:24:34;22.85;;;14.90;;
5819;SDS011;2936;47.348;9.640;2023-12-07T03:27:01;19.85;;;13.35;;
5819;SDS011;2936;47.348;9.640;2023-12-07T03:29:29;32.15;;;16.42;;
5819;SDS011;2936;47.348;9.640;2023-12-07T03:31:56;17.48;;;13.60;;
5819;SDS011;2936;47.348;9.640;2023-12-07T03:34:24;23.05;;;13.90;;
5819;SDS011;2936;47.348;9.640;2023-12-07T03:36:53;17.38;;;13.80;;
5819;SDS011;2936;47.348;9.640;2023-12-07T03:39:21;23.58;;;14.48;;
5819;SDS011;2936;47.348;9.640;2023-12-07T03:41:50;26.80;;;14.57;;
5819;SDS011;2936;47.348;9.640;2023-12-07T03:44:18;30.02;;;15.30;;
5819;SDS011;2936;47.348;9.640;2023-12-07T03:46:46;25.02;;;15.10;;
5819;SDS011;2936;47.348;9.640;2023-12-07T03:49:13;27.75;;;15.95;;
5819;SDS011;2936;47.348;9.640;2023-12-07T03:51:43;24.48;;;15.10;;
5819;SDS011;2936;47.348;9.640;2023-12-07T03:54:12;25.10;;;14.20;;
5819;SDS011;2936;47.348;9.640;2023-12-07T03:56:40;23.67;;;14.70;;
5819;SDS011;2936;47.348;9.640;2023-12-07T03:59:08;24.42;;;15.10;;
5819;SDS011;2936;47.348;9.640;2023-12-07T04:01:36;24.73;;;14.40;;
5819;SDS011;2936;47.348;9.640;2023-12-07T04:04:04;25.98;;;14.70;;
5819;SDS011;2936;47.348;9.640;2023-12-07T04:06:31;24.45;;;14.25;;
5819;SDS011;2936;47.348;9.640;2023-12-07T04:08:59;18.88;;;14.00;;
5819;SDS011;2936;47.348;9.640;2023-12-07T04:11:29;25.63;;;16.13;;
5819;SDS011;2936;47.348;9.640;2023-12-07T04:13:57;27.48;;;16.98;;
5819;SDS011;2936;47.348;9.640;2023-12-07T04:16:25;23.77;;;15.68;;
5819;SDS011;2936;47.348;9.640;2023-12-07T04:18:52;28.25;;;16.67;;
5819;SDS011;2936;47.348;9.640;2023-12-07T04:21:20;29.50;;;14.85;;
5819;SDS011;2936;47.348;9.640;2023-12-07T04:23:47;26.85;;;15.75;;
5819;SDS011;2936;47.348;9.640;2023-12-07T04:26:15;29.08;;;16.60;;
5819;SDS011;2936;47.348;9.640;2023-12-07T04:28:46;26.17;;;15.27;;
5819;SDS011;2936;47.348;9.640;2023-12-07T04:31:14;42.75;;;17.75;;
5819;SDS011;2936;47.348;9.640;2023-12-07T04:33:43;26.45;;;15.75;;
5819;SDS011;2936;47.348;9.640;2023-12-07T04:36:11;25.45;;;15.55;;
5819;SDS011;2936;47.348;9.640;2023-12-07T04:38:38;40.83;;;14.48;;
5819;SDS011;2936;47.348;9.640;2023-12-07T04:41:07;20.00;;;13.38;;
5819;SDS011;2936;47.348;9.640;2023-12-07T04:43:35;24.20;;;14.20;;
5819;SDS011;2936;47.348;9.640;2023-12-07T04:46:04;25.15;;;14.30;;
5819;SDS011;2936;47.348;9.640;2023-12-07T04:48:32;27.63;;;14.63;;
5819;SDS011;2936;47.348;9.640;2023-12-07T04:51:00;19.80;;;13.05;;
5819;SDS011;2936;47.348;9.640;2023-12-07T04:53:28;27.67;;;12.98;;
5819;SDS011;2936;47.348;9.640;2023-12-07T04:55:55;21.70;;;13.07;;
5819;SDS011;2936;47.348;9.640;2023-12-07T04:58:23;22.98;;;13.13;;
5819;SDS011;2936;47.348;9.640;2023-12-07T05:00:51;17.73;;;13.45;;
5819;SDS011;2936;47.348;9.640;2023-12-07T05:03:20;30.55;;;14.00;;
5819;SDS011;2936;47.348;9.640;2023-12-07T05:05:48;27.05;;;14.38;;
5819;SDS011;2936;47.348;9.640;2023-12-07T05:08:16;25.63;;;15.65;;
5819;SDS011;2936;47.348;9.640;2023-12-07T05:10:43;33.13;;;15.23;;
5819;SDS011;2936;47.348;9.640;2023-12-07T05:13:11;27.45;;;17.00;;
5819;SDS011;2936;47.348;9.640;2023-12-07T05:15:39;25.38;;;15.80;;
5819;SDS011;2936;47.348;9.640;2023-12-07T05:18:07;30.30;;;15.50;;
5819;SDS011;2936;47.348;9.640;2023-12-07T05:20:36;53.22;;;18.95;;
5819;SDS011;2936;47.348;9.640;2023-12-07T05:23:04;24.27;;;16.00;;
5819;SDS011;2936;47.348;9.640;2023-12-07T05:25:31;31.73;;;17.30;;
5819;SDS011;2936;47.348;9.640;2023-12-07T05:27:59;24.52;;;15.15;;
5819;SDS011;2936;47.348;9.640;2023-12-07T05:30:26;27.15;;;14.90;;
5819;SDS011;2936;47.348;9.640;2023-12-07T05:32:54;22.48;;;14.70;;
5819;SDS011;2936;47.348;9.640;2023-12-07T05:35:22;27.52;;;15.27;;
5819;SDS011;2936;47.348;9.640;2023-12-07T05:37:51;23.30;;;14.68;;
5819;SDS011;2936;47.348;9.640;2023-12-07T05:40:19;24.13;;;15.73;;
5819;SDS011;2936;47.348;9.640;2023-12-07T05:42:47;28.52;;;15.70;;
5819;SDS011;2936;47.348;9.640;2023-12-07T05:45:15;26.38;;;15.95;;
5819;SDS011;2936;47.348;9.640;2023-12-07T05:47:42;18.20;;;12.38;;
5819;SDS011;2936;47.348;9.640;2023-12-07T05:50:10;20.60;;;13.93;;
5819;SDS011;2936;47.348;9.640;2023-12-07T05:52:38;37.10;;;15.80;;
5819;SDS011;2936;47.348;9.640;2023-12-07T05:55:09;25.98;;;14.90;;
5819;SDS011;2936;47.348;9.640;2023-12-07T05:57:37;24.27;;;15.18;;
5819;SDS011;2936;47.348;9.640;2023-12-07T06:00:05;25.08;;;15.57;;
5819;SDS011;2936;47.348;9.640;2023-12-07T06:02:34;28.33;;;16.50;;
5819;SDS011;2936;47.348;9.640;2023-12-07T06:05:02;47.15;;;18.30;;
5819;SDS011;2936;47.348;9.640;2023-12-07T06:07:30;34.05;;;18.65;;
5819;SDS011;2936;47.348;9.640;2023-12-07T06:09:58;33.60;;;18.88;;
5819;SDS011;2936;47.348;9.640;2023-12-07T06:12:28;35.92;;;19.17;;
5819;SDS011;2936;47.348;9.640;2023-12-07T06:14:55;31.27;;;17.52;;
5819;SDS011;2936;47.348;9.640;2023-12-07T06:17:23;29.63;;;17.50;;
5819;SDS011;2936;47.348;9.640;2023-12-07T06:19:50;26.40;;;16.60;;
5819;SDS011;2936;47.348;9.640;2023-12-07T06:22:18;26.45;;;14.57;;
5819;SDS011;2936;47.348;9.640;2023-12-07T06:24:46;17.67;;;12.18;;
5819;SDS011;2936;47.348;9.640;2023-12-07T06:27:15;30.58;;;13.02;;
5819;SDS011;2936;47.348;9.640;2023-12-07T06:29:44;18.00;;;11.85;;
5819;SDS011;2936;47.348;9.640;2023-12-07T06:32:12;19.08;;;12.30;;
5819;SDS011;2936;47.348;9.640;2023-12-07T06:34:40;23.02;;;13.27;;
5819;SDS011;2936;47.348;9.640;2023-12-07T06:37:07;24.98;;;14.20;;
5819;SDS011;2936;47.348;9.640;2023-12-07T06:39:36;22.30;;;13.32;;
5819;SDS011;2936;47.348;9.640;2023-12-07T06:42:04;22.48;;;15.00;;
5819;SDS011;2936;47.348;9.640;2023-12-07T06:44:33;34.42;;;14.35;;
5819;SDS011;2936;47.348;9.640;2023-12-07T06:47:02;35.00;;;14.82;;
5819;SDS011;2936;47.348;9.640;2023-12-07T06:49:30;23.08;;;14.43;;
5819;SDS011;2936;47.348;9.640;2023-12-07T06:51:58;23.48;;;15.05;;
5819;SDS011;2936;47.348;9.640;2023-12-07T06:54:25;20.30;;;13.32;;
5819;SDS011;2936;47.348;9.640;2023-12-07T06:56:55;29.27;;;15.02;;
5819;SDS011;2936;47.348;9.640;2023-12-07T06:59:22;22.00;;;13.98;;
5819;SDS011;2936;47.348;9.640;2023-12-07T07:01:51;27.05;;;15.85;;
5819;SDS011;2936;47.348;9.640;2023-12-07T07:04:21;26.23;;;15.80;;
5819;SDS011;2936;47.348;9.640;2023-12-07T07:06:48;23.92;;;16.75;;
5819;SDS011;2936;47.348;9.640;2023-12-07T07:09:17;25.00;;;16.38;;
5819;SDS011;2936;47.348;9.640;2023-12-07T07:11:47;34.53;;;18.48;;
5819;SDS011;2936;47.348;9.640;2023-12-07T07:14:14;29.42;;;19.25;;
5819;SDS011;2936;47.348;9.640;2023-12-07T07:16:42;38.92;;;19.80;;
5819;SDS011;2936;47.348;9.640;2023-12-07T07:19:10;27.08;;;17.08;;
5819;SDS011;2936;47.348;9.640;2023-12-07T07:21:41;32.05;;;18.45;;
5819;SDS011;2936;47.348;9.640;2023-12-07T07:24:09;43.13;;;19.10;;
5819;SDS011;2936;47.348;9.640;2023-12-07T07:26:36;34.88;;;18.50;;
5819;SDS011;2936;47.348;9.640;2023-12-07T07:29:04;29.80;;;15.95;;
5819;SDS011;2936;47.348;9.640;2023-12-07T07:31:32;36.05;;;20.35;;
5819;SDS011;2936;47.348;9.640;2023-12-07T07:34:00;42.47;;;19.77;;
5819;SDS011;2936;47.348;9.640;2023-12-07T07:36:29;33.67;;;18.65;;
5819;SDS011;2936;47.348;9.640;2023-12-07T07:38:59;30.58;;;16.38;;
5819;SDS011;2936;47.348;9.640;2023-12-07T07:41:26;33.78;;;19.98;;
5819;SDS011;2936;47.348;9.640;2023-12-07T07:43:54;28.20;;;17.92;;
5819;SDS011;2936;47.348;9.640;2023-12-07T07:46:22;34.75;;;18.38;;
5819;SDS011;2936;47.348;9.640;2023-12-07T07:48:49;29.42;;;17.52;;
5819;SDS011;2936;47.348;9.640;2023-12-07T07:51:18;30.63;;;17.67;;
5819;SDS011;2936;47.348;9.640;2023-12-07T07:53:46;31.10;;;17.30;;
5819;SDS011;2936;47.348;9.640;2023-12-07T07:56:16;34.13;;;18.00;;
5819;SDS011;2936;47.348;9.640;2023-12-07T07:58:44;35.05;;;16.27;;
5819;SDS011;2936;47.348;9.640;2023-12-07T08:01:11;33.47;;;17.75;;
5819;SDS011;2936;47.348;9.640;2023-12-07T08:03:39;29.48;;;16.60;;
5819;SDS011;2936;47.348;9.640;2023-12-07T08:06:06;21.17;;;14.25;;
5819;SDS011;2936;47.348;9.640;2023-12-07T08:08:35;24.02;;;15.05;;
5819;SDS011;2936;47.348;9.640;2023-12-07T08:11:03;31.23;;;17.90;;
5819;SDS011;2936;47.348;9.640;2023-12-07T08:13:32;34.13;;;19.80;;
5819;SDS011;2936;47.348;9.640;2023-12-07T08:16:00;67.20;;;21.42;;
5819;SDS011;2936;47.348;9.640;2023-12-07T08:18:28;28.48;;;17.33;;
5819;SDS011;2936;47.348;9.640;2023-12-07T08:20:56;80.78;;;20.13;;
5819;SDS011;2936;47.348;9.640;2023-12-07T08:23:24;80.70;;;21.90;;
5819;SDS011;2936;47.348;9.640;2023-12-07T08:25:52;57.05;;;19.00;;
5819;SDS011;2936;47.348;9.640;2023-12-07T08:28:22;77.55;;;21.13;;
5819;SDS011;2936;47.348;9.640;2023-12-07T08:30:51;53.95;;;23.23;;
5819;SDS011;2936;47.348;9.640;2023-12-07T08:33:19;55.10;;;21.85;;
5819;SDS011;2936;47.348;9.640;2023-12-07T08:35:47;96.47;;;21.67;;
5819;SDS011;2936;47.348;9.640;2023-12-07T08:38:20;78.00;;;21.13;;
5819;SDS011;2936;47.348;9.640;2023-12-07T08:40:48;76.80;;;31.30;;
5819;SDS011;2936;47.348;9.640;2023-12-07T08:43:18;73.78;;;27.40;;
5819;SDS011;2936;47.348;9.640;2023-12-07T08:45:46;103.20;;;22.20;;
5819;SDS011;2936;47.348;9.640;2023-12-07T08:48:15;65.13;;;28.02;;
5819;SDS011;2936;47.348;9.640;2023-12-07T08:50:43;43.15;;;23.70;;
5819;SDS011;2936;47.348;9.640;2023-12-07T08:53:11;66.68;;;22.77;;
5819;SDS011;2936;47.348;9.640;2023-12-07T08:55:39;46.15;;;21.05;;
5819;SDS011;2936;47.348;9.640;2023-12-07T08:58:06;66.45;;;20.63;;
5819;SDS011;2936;47.348;9.640;2023-12-07T09:00:35;37.63;;;21.52;;
5819;SDS011;2936;47.348;9.640;2023-12-07T09:03:04;34.78;;;19.80;;
5819;SDS011;2936;47.348;9.640;2023-12-07T09:05:33;39.60;;;19.58;;
5819;SDS011;2936;47.348;9.640;2023-12-07T09:08:01;34.50;;;20.80;;
5819;SDS011;2936;47.348;9.640;2023-12-07T09:10:29;35.53;;;20.20;;
5819;SDS011;2936;47.348;9.640;2023-12-07T09:12:57;31.35;;;18.48;;
5819;SDS011;2936;47.348;9.640;2023-12-07T09:15:26;80.00;;;41.92;;
5819;SDS011;2936;47.348;9.640;2023-12-07T09:17:54;40.05;;;21.27;;
5819;SDS011;2936;47.348;9.640;2023-12-07T09:20:22;42.78;;;19.30;;
5819;SDS011;2936;47.348;9.640;2023-12-07T09:22:54;29.75;;;18.80;;
5819;SDS011;2936;47.348;9.640;2023-12-07T09:25:22;26.63;;;15.50;;
5819;SDS011;2936;47.348;9.640;2023-12-07T09:27:53;26.08;;;14.52;;
5819;SDS011;2936;47.348;9.640;2023-12-07T09:30:21;11.77;;;9.20;;
5819;SDS011;2936;47.348;9.640;2023-12-07T09:32:49;11.80;;;7.05;;
5819;SDS011;2936;47.348;9.640;2023-12-07T09:35:16;5.57;;;5.18;;
5819;SDS011;2936;47.348;9.640;2023-12-07T09:37:45;5.55;;;5.05;;
5819;SDS011;2936;47.348;9.640;2023-12-07T09:40:18;5.93;;;5.22;;
5819;SDS011;2936;47.348;9.640;2023-12-07T09:42:46;4.32;;;4.05;;
5819;SDS011;2936;47.348;9.640;2023-12-07T09:45:14;4.90;;;4.57;;
5819;SDS011;2936;47.348;9.640;2023-12-07T09:47:45;5.57;;;4.82;;
5819;SDS011;2936;47.348;9.640;2023-12-07T09:50:15;5.10;;;4.60;;
5819;SDS011;2936;47.348;9.640;2023-12-07T09:52:47;9.30;;;6.15;;
5819;SDS011;2936;47.348;9.640;2023-12-07T09:55:15;5.65;;;5.20;;
5819;SDS011;2936;47.348;9.640;2023-12-07T09:57:45;5.53;;;4.95;;
5819;SDS011;2936;47.348;9.640;2023-12-07T10:00:13;21.08;;;8.32;;
5819;SDS011;2936;47.348;9.640;2023-12-07T10:02:41;9.25;;;7.28;;
5819;SDS011;2936;47.348;9.640;2023-12-07T10:05:10;5.40;;;4.90;;
5819;SDS011;2936;47.348;9.640;2023-12-07T10:07:39;7.78;;;6.25;;
5819;SDS011;2936;47.348;9.640;2023-12-07T10:10:08;6.20;;;5.40;;
5819;SDS011;2936;47.348;9.640;2023-12-07T10:12:44;11.63;;;5.65;;
5819;SDS011;2936;47.348;9.640;2023-12-07T10:15:15;10.00;;;7.30;;
5819;SDS011;2936;47.348;9.640;2023-12-07T10:17:46;11.43;;;6.60;;
5819;SDS011;2936;47.348;9.640;2023-12-07T10:20:15;15.02;;;6.88;;
5819;SDS011;2936;47.348;9.640;2023-12-07T10:22:43;16.02;;;6.88;;
5819;SDS011;2936;47.348;9.640;2023-12-07T10:25:11;22.73;;;10.35;;
5819;SDS011;2936;47.348;9.640;2023-12-07T10:27:40;13.15;;;7.78;;
5819;SDS011;2936;47.348;9.640;2023-12-07T10:30:09;25.25;;;15.07;;
5819;SDS011;2936;47.348;9.640;2023-12-07T10:32:39;8.73;;;6.03;;
5819;SDS011;2936;47.348;9.640;2023-12-07T10:35:07;8.38;;;6.88;;
5819;SDS011;2936;47.348;9.640;2023-12-07T10:37:35;5.85;;;5.35;;
5819;SDS011;2936;47.348;9.640;2023-12-07T10:40:04;7.07;;;6.45;;
5819;SDS011;2936;47.348;9.640;2023-12-07T10:42:33;5.70;;;5.20;;
5819;SDS011;2936;47.348;9.640;2023-12-07T10:45:04;6.55;;;5.90;;
5819;SDS011;2936;47.348;9.640;2023-12-07T10:47:36;6.43;;;5.88;;
5819;SDS011;2936;47.348;9.640;2023-12-07T10:50:07;7.93;;;6.95;;
5819;SDS011;2936;47.348;9.640;2023-12-07T10:52:37;9.15;;;8.15;;
5819;SDS011;2936;47.348;9.640;2023-12-07T10:55:10;3.70;;;3.50;;
5819;SDS011;2936;47.348;9.640;2023-12-07T10:57:40;7.00;;;6.40;;
5819;SDS011;2936;47.348;9.640;2023-12-07T11:00:08;6.75;;;6.15;;
5819;SDS011;2936;47.348;9.640;2023-12-07T11:02:36;5.75;;;5.35;;
5819;SDS011;2936;47.348;9.640;2023-12-07T11:05:03;5.88;;;5.50;;
5819;SDS011;2936;47.348;9.640;2023-12-07T11:07:38;4.00;;;3.80;;
5819;SDS011;2936;47.348;9.640;2023-12-07T11:10:10;5.75;;;5.25;;
5819;SDS011;2936;47.348;9.640;2023-12-07T11:12:41;6.32;;;5.70;;
5819;SDS011;2936;47.348;9.640;2023-12-07T11:15:13;3.88;;;3.58;;
5819;SDS011;2936;47.348;9.640;2023-12-07T11:17:50;3.97;;;3.67;;
5819;SDS011;2936;47.348;9.640;2023-12-07T11:20:19;2.63;;;2.50;;
5819;SDS011;2936;47.348;9.640;2023-12-07T11:22:49;3.03;;;2.83;;
5819;SDS011;2936;47.348;9.640;2023-12-07T11:25:17;2.60;;;2.50;;
5819;SDS011;2936;47.348;9.640;2023-12-07T11:27:45;2.40;;;2.30;;
5819;SDS011;2936;47.348;9.640;2023-12-07T11:30:14;2.92;;;2.83;;
5819;SDS011;2936;47.348;9.640;2023-12-07T11:32:43;3.45;;;3.25;;
5819;SDS011;2936;47.348;9.640;2023-12-07T11:35:14;2.80;;;2.70;;
5819;SDS011;2936;47.348;9.640;2023-12-07T11:40:30;2.72;;;2.63;;
5819;SDS011;2936;47.348;9.640;2023-12-07T11:42:59;2.60;;;2.50;;
5819;SDS011;2936;47.348;9.640;2023-12-07T11:45:35;2.60;;;2.50;;
5819;SDS011;2936;47.348;9.640;2023-12-07T11:48:09;2.60;;;2.50;;
5819;SDS011;2936;47.348;9.640;2023-12-07T11:50:54;2.95;;;2.75;;
5819;SDS011;2936;47.348;9.640;2023-12-07T11:53:22;2.97;;;2.88;;
5819;SDS011;2936;47.348;9.640;2023-12-07T11:55:52;2.38;;;2.28;;
5819;SDS011;2936;47.348;9.640;2023-12-07T11:58:19;2.95;;;2.85;;
5819;SDS011;2936;47.348;9.640;2023-12-07T12:00:47;2.30;;;2.20;;
5819;SDS011;2936;47.348;9.640;2023-12-07T12:03:15;3.08;;;2.97;;
5819;SDS011;2936;47.348;9.640;2023-12-07T12:05:42;3.00;;;2.90;;
5819;SDS011;2936;47.348;9.640;2023-12-07T12:08:11;5.70;;;3.00;;
5819;SDS011;2936;47.348;9.640;2023-12-07T12:10:39;3.10;;;2.90;;
5819;SDS011;2936;47.348;9.640;2023-12-07T12:13:09;2.80;;;2.70;;
5819;SDS011;2936;47.348;9.640;2023-12-07T12:15:37;2.80;;;2.70;;
5819;SDS011;2936;47.348;9.640;2023-12-07T12:18:06;2.40;;;2.30;;
5819;SDS011;2936;47.348;9.640;2023-12-07T12:20:35;2.38;;;2.17;;
5819;SDS011;2936;47.348;9.640;2023-12-07T12:23:03;2.20;;;2.10;;
5819;SDS011;2936;47.348;9.640;2023-12-07T12:25:30;3.33;;;2.45;;
5819;SDS011;2936;47.348;9.640;2023-12-07T12:28:01;2.90;;;2.70;;
5819;SDS011;2936;47.348;9.640;2023-12-07T12:30:30;3.10;;;2.85;;
5819;SDS011;2936;47.348;9.640;2023-12-07T12:32:58;2.55;;;2.45;;
5819;SDS011;2936;47.348;9.640;2023-12-07T12:35:26;2.70;;;2.60;;
5819;SDS011;2936;47.348;9.640;2023-12-07T12:37:54;2.03;;;2.03;;
5819;SDS011;2936;47.348;9.640;2023-12-07T12:40:23;2.92;;;2.70;;
5819;SDS011;2936;47.348;9.640;2023-12-07T12:42:51;2.60;;;2.50;;
5819;SDS011;2936;47.348;9.640;2023-12-07T12:45:19;2.00;;;2.00;;
5819;SDS011;2936;47.348;9.640;2023-12-07T12:47:49;2.30;;;2.20;;
5819;SDS011;2936;47.348;9.640;2023-12-07T12:52:58;2.38;;;2.17;;
5819;SDS011;2936;47.348;9.640;2023-12-07T12:55:30;2.53;;;2.42;;
5819;SDS011;2936;47.348;9.640;2023-12-07T12:57:57;4.60;;;3.30;;
5819;SDS011;2936;47.348;9.640;2023-12-07T13:00:25;2.67;;;2.58;;
5819;SDS011;2936;47.348;9.640;2023-12-07T13:02:55;6.68;;;2.67;;
5819;SDS011;2936;47.348;9.640;2023-12-07T13:05:22;2.20;;;2.10;;
5819;SDS011;2936;47.348;9.640;2023-12-07T13:07:50;2.42;;;2.33;;
5819;SDS011;2936;47.348;9.640;2023-12-07T13:10:18;2.45;;;2.35;;
5819;SDS011;2936;47.348;9.640;2023-12-07T13:12:46;5.78;;;2.80;;
5819;SDS011;2936;47.348;9.640;2023-12-07T13:15:13;2.67;;;2.58;;
5819;SDS011;2936;47.348;9.640;2023-12-07T13:17:42;3.40;;;3.10;;
5819;SDS011;2936;47.348;9.640;2023-12-07T13:20:12;2.42;;;2.22;;
5819;SDS011;2936;47.348;9.640;2023-12-07T13:22:40;2.55;;;2.45;;
5819;SDS011;2936;47.348;9.640;2023-12-07T13:25:08;2.63;;;2.53;;
5819;SDS011;2936;47.348;9.640;2023-12-07T13:27:37;2.60;;;2.42;;
5819;SDS011;2936;47.348;9.640;2023-12-07T13:30:05;2.50;;;2.40;;
5819;SDS011;2936;47.348;9.640;2023-12-07T13:32:34;2.97;;;2.88;;
5819;SDS011;2936;47.348;9.640;2023-12-07T13:35:03;2.70;;;2.60;;
5819;SDS011;2936;47.348;9.640;2023-12-07T13:37:34;2.75;;;2.47;;
5819;SDS011;2936;47.348;9.640;2023-12-07T13:40:02;2.72;;;2.60;;
5819;SDS011;2936;47.348;9.640;2023-12-07T13:42:35;2.28;;;2.17;;
5819;SDS011;2936;47.348;9.640;2023-12-07T13:45:03;2.30;;;2.10;;
5819;SDS011;2936;47.348;9.640;2023-12-07T13:47:32;5.47;;;2.53;;
5819;SDS011;2936;47.348;9.640;2023-12-07T13:50:02;2.58;;;2.47;;
5819;SDS011;2936;47.348;9.640;2023-12-07T13:52:30;2.40;;;2.28;;
5819;SDS011;2936;47.348;9.640;2023-12-07T13:55:00;2.00;;;1.90;;
5819;SDS011;2936;47.348;9.640;2023-12-07T13:57:30;3.20;;;2.10;;
5819;SDS011;2936;47.348;9.640;2023-12-07T13:59:58;3.10;;;3.00;;
5819;SDS011;2936;47.348;9.640;2023-12-07T14:02:25;2.70;;;2.50;;
5819;SDS011;2936;47.348;9.640;2023-12-07T14:04:54;2.33;;;2.13;;
5819;SDS011;2936;47.348;9.640;2023-12-07T14:07:22;2.30;;;2.20;;
5819;SDS011;2936;47.348;9.640;2023-12-07T14:09:51;2.92;;;2.72;;
5819;SDS011;2936;47.348;9.640;2023-12-07T14:12:20;2.70;;;2.60;;
5819;SDS011;2936;47.348;9.640;2023-12-07T14:14:48;2.55;;;2.45;;
5819;SDS011;2936;47.348;9.640;2023-12-07T14:17:16;2.20;;;2.10;;
5819;SDS011;2936;47.348;9.640;2023-12-07T14:19:45;2.20;;;2.10;;
5819;SDS011;2936;47.348;9.640;2023-12-07T14:22:14;1.80;;;1.80;;
5819;SDS011;2936;47.348;9.640;2023-12-07T14:24:42;2.53;;;2.42;;
5819;SDS011;2936;47.348;9.640;2023-12-07T14:27:13;6.80;;;2.53;;
5819;SDS011;2936;47.348;9.640;2023-12-07T14:29:43;11.77;;;2.30;;
5819;SDS011;2936;47.348;9.640;2023-12-07T14:32:10;2.08;;;1.98;;
5819;SDS011;2936;47.348;9.640;2023-12-07T14:34:38;2.35;;;2.22;;
5819;SDS011;2936;47.348;9.640;2023-12-07T14:37:05;2.00;;;1.90;;
5819;SDS011;2936;47.348;9.640;2023-12-07T14:39:33;2.28;;;2.17;;
5819;SDS011;2936;47.348;9.640;2023-12-07T14:42:00;2.28;;;2.17;;
5819;SDS011;2936;47.348;9.640;2023-12-07T14:44:29;2.30;;;2.20;;
5819;SDS011;2936;47.348;9.640;2023-12-07T14:46:59;2.80;;;2.60;;
5819;SDS011;2936;47.348;9.640;2023-12-07T14:49:27;2.67;;;2.50;;
5819;SDS011;2936;47.348;9.640;2023-12-07T14:51:55;17.25;;;3.05;;
5819;SDS011;2936;47.348;9.640;2023-12-07T14:54:24;2.45;;;2.35;;
5819;SDS011;2936;47.348;9.640;2023-12-07T14:56:52;2.53;;;2.42;;
5819;SDS011;2936;47.348;9.640;2023-12-07T14:59:19;3.58;;;3.33;;
5819;SDS011;2936;47.348;9.640;2023-12-07T15:01:47;4.20;;;3.00;;
5819;SDS011;2936;47.348;9.640;2023-12-07T15:04:17;8.00;;;2.90;;
5819;SDS011;2936;47.348;9.640;2023-12-07T15:06:43;4.65;;;2.58;;
5819;SDS011;2936;47.348;9.640;2023-12-07T15:09:10;2.60;;;2.50;;
5819;SDS011;2936;47.348;9.640;2023-12-07T15:11:39;6.72;;;3.55;;
5819;SDS011;2936;47.348;9.640;2023-12-07T15:14:07;3.05;;;2.85;;